createdAt,value
2023-08-29T00:02:31.938Z,22.51
2023-08-29T00:05:15.218Z,22.51
2023-08-29T00:07:59.905Z,22.47
2023-08-29T00:10:43.087Z,22.37
2023-08-29T00:13:26.244Z,22.36
2023-08-29T00:16:09.514Z,22.33
2023-08-29T00:18:52.703Z,22.30
2023-08-29T00:21:35.790Z,22.31
2023-08-29T00:24:20.383Z,22.19
2023-08-29T00:27:04.130Z,22.18
2023-08-29T00:29:47.602Z,22.16
2023-08-29T00:32:30.794Z,22.13
2023-08-29T00:35:13.953Z,22.18
2023-08-29T00:37:57.023Z,22.09
2023-08-29T00:40:41.748Z,22.06
2023-08-29T00:43:24.859Z,21.99
2023-08-29T00:46:09.101Z,21.99
2023-08-29T00:48:52.957Z,21.93
2023-08-29T00:51:36.176Z,21.88
2023-08-29T00:54:20.558Z,21.83
2023-08-29T00:57:05.369Z,21.82
2023-08-29T00:59:48.587Z,21.77
2023-08-29T01:02:31.767Z,21.70
2023-08-29T01:05:14.883Z,21.67
2023-08-29T01:08:01.230Z,21.70
2023-08-29T01:10:54.284Z,21.70
2023-08-29T01:13:46.433Z,21.71
2023-08-29T01:16:36.840Z,21.65
2023-08-29T01:19:24.570Z,21.58
2023-08-29T01:22:19.024Z,21.59
2023-08-29T01:25:11.598Z,21.56
2023-08-29T01:27:56.578Z,21.57
2023-08-29T01:30:42.379Z,21.55
2023-08-29T01:33:25.735Z,21.50
2023-08-29T01:36:09.202Z,21.46
2023-08-29T01:38:52.305Z,21.41
2023-08-29T01:41:35.661Z,21.31
2023-08-29T01:44:20.170Z,21.30
2023-08-29T01:47:03.394Z,21.22
2023-08-29T01:49:46.914Z,21.26
2023-08-29T01:52:30.091Z,21.18
2023-08-29T01:55:13.335Z,21.08
2023-08-29T01:57:56.842Z,21.13
2023-08-29T02:00:42.263Z,21.03
2023-08-29T02:03:25.695Z,20.99
2023-08-29T02:06:08.916Z,21.01
2023-08-29T02:08:52.063Z,21.10
2023-08-29T02:11:35.183Z,21.01
2023-08-29T02:14:18.277Z,21.00
2023-08-29T02:17:02.849Z,20.97
2023-08-29T02:19:46.106Z,20.93
2023-08-29T02:22:29.237Z,20.89
2023-08-29T02:25:12.254Z,21.08
2023-08-29T02:27:55.389Z,20.93
2023-08-29T02:30:38.485Z,20.85
2023-08-29T02:33:23.025Z,20.84
2023-08-29T02:36:06.679Z,20.74
2023-08-29T02:38:49.765Z,20.67
2023-08-29T02:41:32.990Z,20.66
2023-08-29T02:44:16.282Z,20.67
2023-08-29T02:46:59.344Z,20.67
2023-08-29T02:49:43.825Z,20.64
2023-08-29T02:52:26.969Z,20.57
2023-08-29T02:55:11.394Z,20.67
2023-08-29T02:57:54.525Z,20.58
2023-08-29T03:00:37.650Z,20.57
2023-08-29T03:03:21.707Z,20.62
2023-08-29T03:06:06.639Z,20.67
2023-08-29T03:08:49.816Z,20.61
2023-08-29T03:11:33.341Z,20.60
2023-08-29T03:14:16.710Z,20.59
2023-08-29T03:16:59.797Z,20.58
2023-08-29T03:19:42.901Z,20.62
2023-08-29T03:22:27.437Z,20.63
2023-08-29T03:25:11.388Z,20.77
2023-08-29T03:27:54.472Z,20.76
2023-08-29T03:30:37.568Z,20.70
2023-08-29T03:33:20.861Z,20.63
2023-08-29T03:36:04.121Z,20.65
2023-08-29T03:38:48.723Z,20.58
2023-08-29T03:41:31.832Z,20.63
2023-08-29T03:44:15.087Z,20.67
2023-08-29T03:46:58.257Z,20.76
2023-08-29T03:49:41.465Z,20.79
2023-08-29T03:52:24.922Z,20.83
2023-08-29T03:55:10.336Z,20.72
2023-08-29T03:57:53.415Z,20.63
2023-08-29T04:00:36.739Z,20.53
2023-08-29T04:03:20.138Z,20.46
2023-08-29T04:06:04.651Z,20.38
2023-08-29T04:08:47.913Z,20.48
2023-08-29T04:11:32.400Z,20.42
2023-08-29T04:14:15.476Z,20.53
2023-08-29T04:16:58.563Z,20.53
2023-08-29T04:19:41.758Z,20.56
2023-08-29T04:22:24.805Z,20.58
2023-08-29T04:25:08.912Z,20.73
2023-08-29T04:27:53.355Z,20.62
2023-08-29T04:30:36.804Z,20.57
2023-08-29T04:33:20.308Z,20.58
2023-08-29T04:36:03.423Z,20.62
2023-08-29T04:38:48.917Z,20.67
2023-08-29T04:41:32.098Z,20.72
2023-08-29T04:44:16.754Z,20.75
2023-08-29T04:46:59.927Z,20.81
2023-08-29T04:49:43.014Z,20.93
2023-08-29T04:52:26.066Z,21.14
2023-08-29T04:55:10.188Z,21.17
2023-08-29T04:57:55.963Z,21.20
2023-08-29T05:00:40.813Z,21.21
2023-08-29T05:03:24.065Z,21.26
2023-08-29T05:06:07.257Z,21.36
2023-08-29T05:08:50.337Z,21.46
2023-08-29T05:11:33.406Z,21.59
2023-08-29T05:14:16.484Z,21.65
2023-08-29T05:17:01.120Z,21.76
2023-08-29T05:19:44.705Z,21.88
2023-08-29T05:22:27.872Z,22.06
2023-08-29T05:25:11.155Z,22.22
2023-08-29T05:27:54.388Z,22.36
2023-08-29T05:30:37.581Z,22.58
2023-08-29T05:33:22.041Z,22.76
2023-08-29T05:36:05.382Z,22.94
2023-08-29T05:38:48.735Z,23.14
2023-08-29T05:41:31.843Z,23.25
2023-08-29T05:44:14.952Z,23.40
2023-08-29T05:46:58.059Z,23.48
2023-08-29T05:49:42.682Z,23.44
2023-08-29T05:52:25.770Z,23.57
2023-08-29T05:55:09.614Z,23.62
2023-08-29T05:57:52.687Z,23.67
2023-08-29T06:00:37.255Z,23.64
2023-08-29T06:03:22.964Z,23.61
2023-08-29T06:06:08.551Z,23.51
2023-08-29T06:08:51.615Z,23.32
2023-08-29T06:11:34.684Z,23.34
2023-08-29T06:14:17.841Z,23.62
2023-08-29T06:17:00.999Z,24.08
2023-08-29T06:19:44.009Z,24.51
2023-08-29T06:22:28.515Z,25.04
2023-08-29T06:25:12.273Z,25.28
2023-08-29T06:27:55.565Z,25.46
2023-08-29T06:30:38.961Z,25.94
2023-08-29T06:33:22.820Z,26.13
2023-08-29T06:36:06.232Z,26.52
2023-08-29T06:38:50.717Z,26.25
2023-08-29T06:41:33.985Z,26.21
2023-08-29T06:44:17.163Z,26.35
2023-08-29T06:47:00.358Z,26.16
2023-08-29T06:49:43.524Z,26.05
2023-08-29T06:52:28.322Z,25.88
2023-08-29T06:55:12.921Z,25.67
2023-08-29T06:57:55.972Z,25.98
2023-08-29T07:00:39.038Z,26.60
2023-08-29T07:03:22.253Z,27.28
2023-08-29T07:06:05.554Z,28.41
2023-08-29T07:08:49.153Z,29.95
2023-08-29T07:11:33.998Z,31.58
2023-08-29T07:14:17.100Z,32.75
2023-08-29T07:17:08.169Z,33.38
2023-08-29T07:19:53.871Z,33.26
2023-08-29T07:22:37.677Z,33.96
2023-08-29T07:25:23.162Z,33.73
2023-08-29T07:28:09.017Z,34.28
2023-08-29T07:30:52.657Z,35.18
2023-08-29T07:33:35.964Z,35.55
2023-08-29T07:36:19.034Z,35.99
2023-08-29T07:39:02.101Z,36.17
2023-08-29T07:41:45.210Z,37.19
2023-08-29T07:44:30.817Z,37.60
2023-08-29T07:47:15.557Z,36.88
2023-08-29T07:49:59.263Z,36.63
2023-08-29T07:52:42.502Z,36.30
2023-08-29T07:55:25.687Z,37.41
2023-08-29T07:58:09.176Z,37.52
2023-08-29T08:00:53.766Z,38.01
2023-08-29T08:03:37.015Z,37.58
2023-08-29T08:06:20.336Z,38.23
2023-08-29T08:09:04.621Z,39.26
2023-08-29T08:11:47.706Z,39.44
2023-08-29T08:14:30.836Z,39.34
2023-08-29T08:17:15.515Z,40.25
2023-08-29T08:19:58.950Z,41.11
2023-08-29T08:22:43.435Z,41.74
2023-08-29T08:25:27.207Z,41.39
2023-08-29T08:28:10.375Z,39.70
2023-08-29T08:30:53.502Z,37.28
2023-08-29T08:33:38.040Z,36.08
2023-08-29T08:36:21.208Z,35.10
2023-08-29T08:39:05.068Z,34.04
2023-08-29T08:41:48.220Z,34.31
2023-08-29T08:44:33.599Z,35.14
2023-08-29T08:47:16.810Z,36.94
2023-08-29T08:50:01.538Z,38.19
2023-08-29T08:52:46.255Z,39.80
2023-08-29T08:55:31.039Z,39.96
2023-08-29T08:58:14.665Z,41.05
2023-08-29T09:00:58.135Z,41.50
2023-08-29T09:03:41.958Z,42.27
2023-08-29T09:06:26.537Z,40.26
2023-08-29T09:09:20.429Z,38.49
2023-08-29T09:12:03.647Z,38.23
2023-08-29T09:14:46.760Z,39.12
2023-08-29T09:17:29.940Z,39.95
2023-08-29T09:20:13.812Z,39.48
2023-08-29T09:22:58.725Z,38.55
2023-08-29T09:25:43.365Z,37.73
2023-08-29T09:28:28.768Z,37.11
2023-08-29T09:31:13.151Z,36.40
2023-08-29T09:33:56.453Z,35.39
2023-08-29T09:36:39.908Z,34.57
2023-08-29T09:39:24.478Z,33.85
2023-08-29T09:42:08.864Z,32.85
2023-08-29T09:44:52.052Z,32.20
2023-08-29T09:47:35.498Z,32.11
2023-08-29T09:50:19.374Z,31.57
2023-08-29T09:53:03.994Z,31.15
2023-08-29T09:55:50.793Z,30.65
2023-08-29T09:58:35.159Z,30.44
2023-08-29T10:01:19.381Z,30.33
2023-08-29T10:04:08.234Z,30.17
2023-08-29T10:06:56.330Z,30.22
2023-08-29T10:09:39.661Z,29.77
2023-08-29T10:12:24.749Z,29.65
2023-08-29T10:15:09.694Z,29.71
2023-08-29T10:17:57.691Z,29.50
2023-08-29T10:20:45.070Z,29.48
2023-08-29T10:23:30.106Z,29.51
2023-08-29T10:26:14.185Z,29.61
2023-08-29T10:29:00.180Z,29.81
2023-08-29T10:31:45.206Z,30.07
2023-08-29T10:34:30.207Z,30.32
2023-08-29T10:37:18.901Z,30.12
2023-08-29T10:40:12.840Z,29.98
2023-08-29T10:42:58.689Z,29.70
2023-08-29T10:45:48.803Z,29.33
2023-08-29T10:48:50.830Z,28.96
2023-08-29T10:51:33.953Z,28.64
2023-08-29T10:54:17.095Z,28.45
2023-08-29T10:57:00.844Z,28.30
2023-08-29T10:59:44.115Z,28.44
2023-08-29T11:02:30.634Z,28.35
2023-08-29T11:05:16.561Z,28.25
2023-08-29T11:08:21.468Z,28.35
2023-08-29T11:11:21.266Z,28.29
2023-08-29T11:14:07.491Z,28.28
2023-08-29T11:17:13.292Z,28.24
2023-08-29T11:19:58.831Z,28.22
2023-08-29T11:22:50.241Z,28.37
2023-08-29T11:25:33.726Z,28.49
2023-08-29T11:28:18.433Z,28.55
2023-08-29T11:31:02.289Z,28.74
2023-08-29T11:33:45.576Z,28.92
2023-08-29T11:36:35.136Z,28.94
2023-08-29T11:39:19.165Z,28.87
2023-08-29T11:42:25.790Z,28.90
2023-08-29T11:45:45.319Z,28.94
2023-08-29T11:48:11.493Z,28.92
2023-08-29T11:50:56.334Z,28.96
2023-08-29T11:53:41.031Z,28.93
2023-08-29T11:56:24.150Z,29.21
2023-08-29T11:59:07.388Z,29.33
2023-08-29T12:01:51.227Z,29.41
2023-08-29T12:04:34.491Z,29.52
2023-08-29T12:07:18.742Z,29.49
2023-08-29T12:10:11.682Z,29.39
2023-08-29T12:12:55.066Z,29.47
2023-08-29T12:15:43.684Z,29.48
2023-08-29T12:18:28.506Z,29.46
2023-08-29T12:21:16.284Z,29.28
2023-08-29T12:24:11.886Z,29.11
2023-08-29T12:26:57.200Z,29.06
2023-08-29T12:29:40.567Z,29.06
2023-08-29T12:32:27.723Z,29.21
2023-08-29T12:35:11.488Z,29.12
2023-08-29T12:37:54.789Z,29.12
2023-08-29T12:40:39.621Z,28.99
2023-08-29T12:43:25.289Z,29.07
2023-08-29T12:46:10.125Z,29.10
2023-08-29T12:48:53.305Z,29.26
2023-08-29T12:51:36.826Z,29.48
2023-08-29T12:54:19.992Z,29.47
2023-08-29T12:57:03.138Z,29.56
2023-08-29T12:59:47.664Z,29.58
2023-08-29T13:02:30.799Z,29.56
2023-08-29T13:05:14.811Z,29.66
2023-08-29T13:07:58.355Z,29.54
2023-08-29T13:10:41.472Z,29.29
2023-08-29T13:13:24.552Z,29.22
2023-08-29T13:16:09.148Z,29.30
2023-08-29T13:18:52.218Z,29.50
2023-08-29T13:21:35.553Z,29.66
2023-08-29T13:24:20.710Z,29.63
2023-08-29T13:27:03.991Z,29.63
2023-08-29T13:29:47.122Z,29.71
2023-08-29T13:32:32.122Z,29.71
2023-08-29T13:35:15.497Z,29.75
2023-08-29T13:37:58.568Z,29.62
2023-08-29T13:40:44.671Z,29.72
2023-08-29T13:43:28.852Z,29.52
2023-08-29T13:46:12.016Z,29.25
2023-08-29T13:48:56.544Z,29.05
2023-08-29T13:51:39.946Z,28.81
2023-08-29T13:54:23.154Z,28.64
2023-08-29T13:57:07.363Z,28.35
2023-08-29T13:59:50.777Z,28.21
2023-08-29T14:02:34.165Z,28.10
2023-08-29T14:05:18.964Z,28.01
2023-08-29T14:08:02.251Z,28.02
2023-08-29T14:10:45.380Z,27.88
2023-08-29T14:13:28.571Z,27.52
2023-08-29T14:16:11.791Z,25.05
2023-08-29T14:18:54.865Z,22.85
2023-08-29T14:21:39.411Z,21.92
2023-08-29T14:24:22.455Z,21.44
2023-08-29T14:27:05.757Z,21.37
2023-08-29T14:29:48.836Z,21.27
2023-08-29T14:32:32.424Z,21.30
2023-08-29T14:35:15.799Z,21.39
2023-08-29T14:38:00.779Z,21.35
2023-08-29T14:40:43.958Z,21.37
2023-08-29T14:43:27.110Z,21.52
2023-08-29T14:46:10.617Z,21.56
2023-08-29T14:48:53.869Z,21.64
2023-08-29T14:51:36.994Z,21.77
2023-08-29T14:54:21.506Z,21.96
2023-08-29T14:57:07.302Z,22.22
2023-08-29T14:59:51.592Z,22.57
2023-08-29T15:02:34.767Z,22.94
2023-08-29T15:05:18.191Z,23.30
2023-08-29T15:08:01.902Z,23.60
2023-08-29T15:10:47.482Z,23.95
2023-08-29T15:13:30.588Z,24.24
2023-08-29T15:16:13.863Z,24.46
2023-08-29T15:18:58.636Z,24.64
2023-08-29T15:21:41.765Z,24.83
2023-08-29T15:24:25.185Z,25.02
2023-08-29T15:27:09.732Z,25.13
2023-08-29T15:29:53.120Z,25.30
2023-08-29T15:32:36.377Z,25.41
2023-08-29T15:35:19.730Z,25.52
2023-08-29T15:38:03.307Z,25.63
2023-08-29T15:40:49.248Z,25.70
2023-08-29T15:43:34.082Z,25.77
2023-08-29T15:46:17.237Z,25.77
2023-08-29T15:49:00.307Z,25.83
2023-08-29T15:51:43.476Z,25.86
2023-08-29T15:54:26.670Z,25.92
2023-08-29T15:57:09.779Z,26.12
2023-08-29T15:59:54.381Z,26.13
2023-08-29T16:02:38.279Z,26.12
2023-08-29T16:05:21.591Z,26.06
2023-08-29T16:08:06.028Z,25.92
2023-08-29T16:10:49.396Z,25.78
2023-08-29T16:13:32.523Z,25.59
2023-08-29T16:16:17.232Z,25.53
2023-08-29T16:19:00.338Z,25.38
2023-08-29T16:21:43.379Z,25.25
2023-08-29T16:24:26.463Z,25.16
2023-08-29T16:27:09.651Z,25.13
2023-08-29T16:29:55.961Z,24.92
2023-08-29T16:32:41.513Z,24.74
2023-08-29T16:35:24.641Z,24.67
2023-08-29T16:38:07.988Z,24.52
2023-08-29T16:40:53.836Z,24.45
2023-08-29T16:43:36.924Z,24.37
2023-08-29T16:46:20.272Z,24.31
2023-08-29T16:49:05.428Z,24.19
2023-08-29T16:51:48.529Z,24.10
2023-08-29T16:54:31.622Z,23.97
2023-08-29T16:57:14.745Z,23.95
2023-08-29T16:59:59.112Z,23.89
2023-08-29T17:02:43.359Z,23.85
2023-08-29T17:05:28.369Z,23.86
2023-08-29T17:08:13.226Z,23.82
2023-08-29T17:10:56.314Z,23.73
2023-08-29T17:13:39.520Z,23.72
2023-08-29T17:16:23.107Z,23.73
2023-08-29T17:19:06.389Z,23.68
2023-08-29T17:21:51.383Z,23.72
2023-08-29T17:24:35.086Z,23.59
2023-08-29T17:27:18.209Z,23.50
2023-08-29T17:30:06.424Z,23.43
2023-08-29T17:32:49.613Z,23.28
2023-08-29T17:35:32.929Z,23.23
2023-08-29T17:38:17.674Z,23.20
2023-08-29T17:41:01.368Z,23.17
2023-08-29T17:43:44.429Z,23.16
2023-08-29T17:46:27.646Z,23.10
2023-08-29T17:49:10.933Z,23.07
2023-08-29T17:51:54.017Z,23.01
2023-08-29T17:54:38.501Z,23.00
2023-08-29T17:57:21.542Z,22.92
2023-08-29T18:00:06.201Z,22.86
2023-08-29T18:02:49.385Z,22.89
2023-08-29T18:05:32.633Z,22.84
2023-08-29T18:08:15.859Z,22.79
2023-08-29T18:11:00.420Z,22.76
2023-08-29T18:13:45.931Z,22.77
2023-08-29T18:16:29.664Z,22.79
2023-08-29T18:19:13.691Z,22.71
2023-08-29T18:21:57.008Z,22.66
2023-08-29T18:24:40.213Z,22.64
2023-08-29T18:27:27.197Z,22.82
2023-08-29T18:30:11.666Z,22.66
2023-08-29T18:32:54.905Z,22.65
2023-08-29T18:35:38.468Z,22.57
2023-08-29T18:38:21.821Z,22.57
2023-08-29T18:41:05.068Z,22.50
2023-08-29T18:43:49.897Z,22.50
2023-08-29T18:46:33.932Z,22.56
2023-08-29T18:49:17.092Z,22.57
2023-08-29T18:52:00.638Z,22.57
2023-08-29T18:54:43.735Z,22.50
2023-08-29T18:57:26.961Z,22.40
2023-08-29T19:00:13.142Z,22.39
2023-08-29T19:02:58.230Z,22.39
2023-08-29T19:05:41.675Z,22.44
2023-08-29T19:08:24.956Z,22.41
2023-08-29T19:11:12.763Z,22.33
2023-08-29T19:13:56.001Z,22.29
2023-08-29T19:16:40.560Z,22.25
2023-08-29T19:19:23.731Z,22.31
2023-08-29T19:22:06.804Z,22.34
2023-08-29T19:24:50.054Z,22.30
2023-08-29T19:27:33.600Z,22.32
2023-08-29T19:30:16.805Z,22.33
2023-08-29T19:33:04.600Z,22.24
2023-08-29T19:35:47.832Z,22.27
2023-08-29T19:38:30.963Z,22.22
2023-08-29T19:41:15.179Z,22.23
2023-08-29T19:43:58.446Z,22.19
2023-08-29T19:46:41.585Z,22.13
2023-08-29T19:49:27.533Z,22.09
2023-08-29T19:52:10.752Z,22.02
2023-08-29T19:54:53.961Z,21.97
2023-08-29T19:57:38.496Z,22.08
2023-08-29T20:00:21.661Z,21.90
2023-08-29T20:03:05.582Z,21.76
2023-08-29T20:05:50.733Z,21.69
2023-08-29T20:08:34.303Z,21.61
2023-08-29T20:11:17.752Z,21.62
2023-08-29T20:14:01.400Z,21.47
2023-08-29T20:16:45.016Z,21.46
2023-08-29T20:19:28.641Z,21.46
2023-08-29T20:22:13.438Z,21.42
2023-08-29T20:24:56.878Z,21.28
2023-08-29T20:27:40.310Z,21.33
2023-08-29T20:30:23.958Z,21.26
2023-08-29T20:33:08.030Z,21.34
2023-08-29T20:35:51.440Z,21.24
2023-08-29T20:38:35.920Z,21.17
2023-08-29T20:41:18.999Z,21.00
2023-08-29T20:44:02.107Z,20.82
2023-08-29T20:46:45.330Z,20.87
2023-08-29T20:49:28.504Z,20.99
2023-08-29T20:52:12.071Z,20.85
2023-08-29T20:54:56.988Z,20.92
2023-08-29T20:57:40.162Z,20.93
2023-08-29T21:00:23.622Z,20.77
2023-08-29T21:03:06.919Z,20.64
2023-08-29T21:05:50.767Z,20.52
2023-08-29T21:08:33.895Z,20.50
2023-08-29T21:11:18.387Z,20.46
2023-08-29T21:14:01.565Z,20.47
2023-08-29T21:16:44.701Z,20.43
2023-08-29T21:19:29.794Z,20.36
2023-08-29T21:22:13.104Z,20.32
2023-08-29T21:24:56.216Z,20.26
2023-08-29T21:27:40.991Z,20.29
2023-08-29T21:30:24.174Z,20.32
2023-08-29T21:33:08.341Z,20.33
2023-08-29T21:35:52.393Z,20.38
2023-08-29T21:38:36.626Z,20.38
2023-08-29T21:41:19.745Z,20.33
2023-08-29T21:44:04.538Z,20.34
2023-08-29T21:46:48.041Z,20.33
2023-08-29T21:49:31.268Z,20.44
2023-08-29T21:52:14.631Z,20.50
2023-08-29T21:54:57.990Z,20.54
2023-08-29T21:57:41.036Z,20.46
2023-08-29T22:00:26.028Z,20.35
2023-08-29T22:03:09.186Z,20.38
2023-08-29T22:05:53.356Z,20.41
2023-08-29T22:08:37.041Z,20.41
2023-08-29T22:11:20.179Z,20.33
2023-08-29T22:14:03.310Z,20.29
2023-08-29T22:16:47.759Z,20.40
2023-08-29T22:19:30.837Z,20.28
2023-08-29T22:22:13.944Z,20.18
2023-08-29T22:24:56.996Z,20.17
2023-08-29T22:27:40.110Z,20.32
2023-08-29T22:30:23.253Z,20.10
2023-08-29T22:33:09.363Z,19.96
2023-08-29T22:35:52.566Z,20.05
2023-08-29T22:38:35.629Z,20.16
2023-08-29T22:41:32.462Z,20.04
2023-08-29T22:44:17.426Z,19.92
2023-08-29T22:47:00.554Z,20.01
2023-08-29T22:49:46.165Z,19.97
2023-08-29T22:52:29.250Z,19.92
2023-08-29T22:55:14.021Z,19.85
2023-08-29T22:57:57.142Z,19.82
2023-08-29T23:00:40.253Z,19.73
2023-08-29T23:03:23.348Z,19.80
2023-08-29T23:06:07.923Z,19.82
2023-08-29T23:08:51.965Z,19.85
2023-08-29T23:11:35.127Z,19.84
2023-08-29T23:14:23.481Z,19.84
2023-08-29T23:17:09.674Z,19.83
2023-08-29T23:19:52.980Z,19.74
2023-08-29T23:22:37.513Z,19.75
2023-08-29T23:25:20.643Z,19.68
2023-08-29T23:28:03.949Z,19.87
2023-08-29T23:30:46.971Z,19.95
2023-08-29T23:33:30.051Z,19.79
2023-08-29T23:36:13.067Z,19.80
2023-08-29T23:38:57.554Z,19.83
2023-08-29T23:41:40.579Z,19.88
2023-08-29T23:44:23.942Z,19.88
2023-08-29T23:47:07.142Z,19.83
2023-08-29T23:49:50.423Z,19.81
2023-08-29T23:52:33.475Z,19.70
2023-08-29T23:55:18.180Z,19.60
2023-08-29T23:58:01.209Z,19.71
